createdAt,value
2023-02-06T00:00:33.238Z,22.52
2023-02-06T00:02:38.415Z,21.00
2023-02-06T00:04:43.748Z,21.17
2023-02-06T00:06:49.020Z,21.33
2023-02-06T00:08:54.824Z,22.63
2023-02-06T00:11:07.530Z,20.17
2023-02-06T00:13:12.423Z,22.17
2023-02-06T00:15:17.374Z,22.60
2023-02-06T00:17:22.250Z,22.63
2023-02-06T00:19:27.171Z,23.48
2023-02-06T00:21:32.867Z,23.27
2023-02-06T00:23:37.777Z,23.55
2023-02-06T00:25:42.692Z,22.60
2023-02-06T00:27:50.189Z,23.05
2023-02-06T00:29:56.166Z,22.08
2023-02-06T00:32:01.252Z,20.45
2023-02-06T00:34:06.527Z,21.15
2023-02-06T00:36:12.501Z,21.85
2023-02-06T00:38:17.489Z,21.08
2023-02-06T00:40:23.187Z,21.65
2023-02-06T00:42:28.680Z,21.30
2023-02-06T00:44:36.212Z,22.80
2023-02-06T00:46:41.479Z,23.23
2023-02-06T00:48:47.105Z,22.30
2023-02-06T00:50:52.119Z,22.23
2023-02-06T00:52:57.822Z,24.05
2023-02-06T00:55:02.736Z,21.88
2023-02-06T00:57:07.752Z,21.00
2023-02-06T00:59:13.809Z,22.30
2023-02-06T01:01:21.332Z,22.38
2023-02-06T01:03:26.450Z,21.52
2023-02-06T01:05:32.436Z,21.95
2023-02-06T01:07:40.139Z,22.33
2023-02-06T01:09:45.218Z,21.95
2023-02-06T01:11:50.903Z,22.08
2023-02-06T01:13:56.049Z,22.45
2023-02-06T01:16:01.779Z,21.58
2023-02-06T01:18:10.972Z,20.05
2023-02-06T01:20:18.472Z,20.13
2023-02-06T01:22:23.418Z,20.67
2023-02-06T01:24:28.332Z,21.00
2023-02-06T01:26:33.358Z,21.92
2023-02-06T01:28:39.576Z,20.20
2023-02-06T01:30:44.821Z,21.27
2023-02-06T01:32:50.081Z,21.83
2023-02-06T01:34:57.599Z,21.35
2023-02-06T01:37:02.976Z,21.30
2023-02-06T01:39:08.816Z,20.73
2023-02-06T01:41:15.869Z,20.52
2023-02-06T01:43:21.593Z,21.52
2023-02-06T01:45:46.575Z,20.70
2023-02-06T01:47:52.676Z,21.98
2023-02-06T01:50:00.644Z,22.58
2023-02-06T01:52:14.126Z,20.15
2023-02-06T01:54:20.467Z,20.90
2023-02-06T01:56:27.191Z,21.40
2023-02-06T01:58:39.164Z,19.50
2023-02-06T02:00:44.281Z,20.83
2023-02-06T02:02:52.330Z,19.40
2023-02-06T02:05:00.823Z,19.33
2023-02-06T02:07:15.121Z,18.40
2023-02-06T02:09:21.262Z,18.23
2023-02-06T02:11:32.923Z,20.58
2023-02-06T02:13:39.213Z,19.73
2023-02-06T02:16:00.204Z,20.73
2023-02-06T02:18:14.051Z,20.02
2023-02-06T02:21:23.885Z,20.25
2023-02-06T02:23:40.473Z,18.42
2023-02-06T02:26:25.354Z,19.30
2023-02-06T02:29:01.407Z,17.95
2023-02-06T02:31:50.277Z,17.73
2023-02-06T02:34:33.462Z,19.33
2023-02-06T02:36:49.177Z,19.27
2023-02-06T02:39:06.837Z,18.48
2023-02-06T02:41:18.856Z,17.95
2023-02-06T02:43:34.517Z,17.17
2023-02-06T02:45:49.312Z,17.45
2023-02-06T02:48:00.995Z,17.42
2023-02-06T02:50:07.198Z,16.52
2023-02-06T02:52:16.160Z,17.25
2023-02-06T02:54:22.337Z,16.65
2023-02-06T02:56:33.495Z,16.48
2023-02-06T02:58:40.002Z,17.13
2023-02-06T03:00:51.721Z,16.65
2023-02-06T03:03:00.351Z,16.83
2023-02-06T03:05:10.090Z,16.92
2023-02-06T03:07:32.577Z,18.75
2023-02-06T03:09:50.780Z,16.23
2023-02-06T03:12:07.727Z,16.45
2023-02-06T03:14:21.044Z,17.95
2023-02-06T03:16:31.605Z,16.98
2023-02-06T03:18:44.470Z,17.05
2023-02-06T03:20:51.437Z,17.92
2023-02-06T03:23:02.074Z,17.02
2023-02-06T03:25:13.507Z,17.90
2023-02-06T03:27:21.649Z,18.98
2023-02-06T03:29:29.341Z,15.88
2023-02-06T03:31:40.942Z,18.10
2023-02-06T03:33:57.257Z,18.63
2023-02-06T03:36:04.255Z,17.77
2023-02-06T03:38:12.101Z,17.70
2023-02-06T03:40:18.220Z,17.50
2023-02-06T03:42:25.736Z,17.85
2023-02-06T03:44:36.982Z,19.00
2023-02-06T03:46:46.690Z,17.52
2023-02-06T03:48:57.324Z,18.95
2023-02-06T03:51:07.656Z,17.63
2023-02-06T03:53:16.497Z,17.35
2023-02-06T03:55:25.275Z,17.75
2023-02-06T03:57:33.129Z,18.10
2023-02-06T03:59:38.047Z,18.15
2023-02-06T04:01:45.501Z,16.00
2023-02-06T04:03:51.093Z,17.80
2023-02-06T04:05:56.008Z,17.58
2023-02-06T04:08:01.987Z,16.63
2023-02-06T04:10:10.077Z,20.08
2023-02-06T04:12:15.401Z,19.63
2023-02-06T04:14:21.145Z,18.73
2023-02-06T04:16:26.078Z,19.20
2023-02-06T04:18:31.910Z,17.73
2023-02-06T04:20:40.946Z,20.50
2023-02-06T04:22:46.349Z,19.52
2023-02-06T04:24:51.857Z,19.02
2023-02-06T04:26:59.361Z,18.77
2023-02-06T04:29:05.087Z,20.85
2023-02-06T04:31:10.009Z,20.52
2023-02-06T04:33:15.383Z,22.40
2023-02-06T04:35:21.298Z,20.83
2023-02-06T04:37:26.222Z,20.83
2023-02-06T04:39:32.454Z,20.25
2023-02-06T04:41:37.851Z,20.38
2023-02-06T04:43:45.708Z,19.60
2023-02-06T04:45:50.649Z,21.17
2023-02-06T04:47:57.073Z,18.67
2023-02-06T04:50:03.672Z,20.02
2023-02-06T04:52:08.705Z,21.05
2023-02-06T04:54:17.356Z,22.15
2023-02-06T04:56:23.128Z,20.67
2023-02-06T04:58:28.035Z,20.95
2023-02-06T05:00:37.940Z,21.92
2023-02-06T05:02:44.325Z,19.52
2023-02-06T05:04:49.301Z,20.38
2023-02-06T05:06:54.607Z,19.63
2023-02-06T05:09:01.727Z,21.15
2023-02-06T05:11:06.775Z,19.98
2023-02-06T05:13:11.983Z,22.27
2023-02-06T05:15:16.956Z,19.65
2023-02-06T05:17:24.682Z,20.33
2023-02-06T05:19:30.413Z,20.60
2023-02-06T05:21:35.408Z,19.38
2023-02-06T05:23:41.041Z,20.40
2023-02-06T05:25:46.109Z,18.58
2023-02-06T05:27:51.454Z,18.77
2023-02-06T05:29:56.408Z,19.23
2023-02-06T05:32:02.030Z,19.45
2023-02-06T05:34:09.526Z,19.77
2023-02-06T05:36:15.456Z,18.83
2023-02-06T05:38:20.970Z,20.35
2023-02-06T05:40:26.337Z,20.08
2023-02-06T05:42:31.732Z,18.13
2023-02-06T05:44:36.659Z,18.88
2023-02-06T05:46:42.080Z,21.52
2023-02-06T05:48:47.304Z,21.95
2023-02-06T05:50:54.825Z,19.67
2023-02-06T05:52:59.759Z,18.25
2023-02-06T05:55:05.379Z,19.30
2023-02-06T05:57:10.448Z,19.05
2023-02-06T05:59:15.777Z,19.67
2023-02-06T06:01:20.998Z,18.52
2023-02-06T06:03:26.025Z,21.75
2023-02-06T06:05:31.447Z,18.48
2023-02-06T06:07:39.037Z,21.95
2023-02-06T06:09:44.933Z,22.50
2023-02-06T06:11:51.818Z,20.25
2023-02-06T06:13:57.241Z,20.65
2023-02-06T06:16:02.704Z,20.45
2023-02-06T06:18:08.356Z,19.50
2023-02-06T06:20:15.029Z,22.38
2023-02-06T06:22:20.734Z,20.58
2023-02-06T06:24:29.035Z,20.33
2023-02-06T06:26:34.779Z,19.75
2023-02-06T06:28:41.322Z,22.80
2023-02-06T06:30:47.220Z,21.73
2023-02-06T06:32:52.624Z,22.00
2023-02-06T06:34:58.878Z,21.33
2023-02-06T06:37:04.188Z,20.95
2023-02-06T06:39:09.202Z,22.42
2023-02-06T06:41:16.918Z,20.27
2023-02-06T06:43:23.390Z,20.77
2023-02-06T06:45:29.221Z,21.98
2023-02-06T06:47:37.463Z,21.08
2023-02-06T06:49:43.274Z,22.48
2023-02-06T06:51:50.403Z,22.15
2023-02-06T06:53:56.820Z,21.38
2023-02-06T06:56:07.141Z,21.60
2023-02-06T06:58:15.189Z,20.52
2023-02-06T07:00:21.699Z,21.10
2023-02-06T07:02:28.768Z,21.00
2023-02-06T07:04:34.731Z,21.58
2023-02-06T07:06:40.383Z,19.55
2023-02-06T07:08:46.375Z,21.88
2023-02-06T07:10:52.440Z,22.35
2023-02-06T07:12:58.300Z,22.83
2023-02-06T07:15:06.923Z,20.83
2023-02-06T07:17:13.321Z,21.00
2023-02-06T07:19:19.360Z,19.08
2023-02-06T07:21:25.327Z,22.10
2023-02-06T07:23:31.280Z,21.48
2023-02-06T07:25:37.636Z,21.48
2023-02-06T07:27:43.808Z,21.10
2023-02-06T07:29:50.635Z,21.50
2023-02-06T07:31:58.800Z,20.77
2023-02-06T07:34:04.617Z,18.58
2023-02-06T07:36:14.562Z,19.13
2023-02-06T07:38:20.881Z,17.17
2023-02-06T07:40:33.748Z,18.13
2023-02-06T07:42:48.840Z,17.23
2023-02-06T07:45:01.618Z,17.00
2023-02-06T07:47:11.524Z,16.80
2023-02-06T07:49:17.733Z,15.85
2023-02-06T07:51:23.179Z,17.23
2023-02-06T07:53:28.836Z,15.35
2023-02-06T07:55:35.036Z,15.27
2023-02-06T07:57:41.175Z,14.93
2023-02-06T07:59:47.240Z,15.18
2023-02-06T08:01:52.825Z,13.40
2023-02-06T08:04:01.903Z,14.63
2023-02-06T08:06:13.427Z,13.60
2023-02-06T08:08:18.748Z,14.25
2023-02-06T08:10:25.215Z,14.25
2023-02-06T08:12:33.358Z,13.85
2023-02-06T08:14:39.245Z,13.55
2023-02-06T08:16:45.237Z,15.98
2023-02-06T08:18:52.152Z,15.32
2023-02-06T08:21:05.481Z,15.77
2023-02-06T08:25:16.885Z,14.45
2023-02-06T08:27:22.862Z,15.05
2023-02-06T08:29:30.171Z,13.98
2023-02-06T08:31:39.621Z,15.18
2023-02-06T08:33:45.707Z,14.95
2023-02-06T08:35:51.066Z,14.68
2023-02-06T08:38:00.898Z,14.75
2023-02-06T08:40:06.254Z,13.80
2023-02-06T08:42:11.227Z,14.48
2023-02-06T08:44:20.074Z,14.18
2023-02-06T08:46:28.277Z,14.43
2023-02-06T08:48:33.395Z,15.32
2023-02-06T08:50:38.822Z,13.48
2023-02-06T08:52:43.808Z,13.55
2023-02-06T08:54:53.131Z,12.40
2023-02-06T08:57:01.011Z,11.38
2023-02-06T08:59:09.076Z,12.05
2023-02-06T09:01:16.727Z,12.13
2023-02-06T09:03:23.016Z,12.55
2023-02-06T09:05:28.482Z,11.95
2023-02-06T09:07:34.272Z,12.30
2023-02-06T09:09:39.849Z,11.50
2023-02-06T09:11:47.753Z,11.32
2023-02-06T09:13:54.162Z,10.75
2023-02-06T09:15:59.472Z,11.55
2023-02-06T09:18:04.471Z,10.52
2023-02-06T09:20:11.728Z,10.25
2023-02-06T09:22:16.672Z,10.75
2023-02-06T09:24:21.634Z,9.98
2023-02-06T09:26:29.291Z,9.63
2023-02-06T09:28:37.219Z,9.23
2023-02-06T09:30:42.264Z,10.15
2023-02-06T09:32:47.660Z,9.77
2023-02-06T09:34:52.603Z,9.25
2023-02-06T09:36:59.303Z,8.20
2023-02-06T09:39:07.264Z,8.90
2023-02-06T09:41:20.996Z,8.43
2023-02-06T09:43:27.244Z,9.05
2023-02-06T09:45:36.164Z,8.25
2023-02-06T09:47:47.530Z,7.85
2023-02-06T09:49:56.511Z,7.25
2023-02-06T09:52:19.990Z,7.97
2023-02-06T09:56:42.379Z,8.25
2023-02-06T09:58:55.273Z,7.78
2023-02-06T10:01:13.066Z,7.10
2023-02-06T10:03:47.090Z,7.90
2023-02-06T10:06:04.484Z,7.55
2023-02-06T10:08:28.180Z,7.78
2023-02-06T10:10:40.018Z,7.57
2023-02-06T10:12:49.763Z,7.85
2023-02-06T10:15:01.361Z,8.13
2023-02-06T10:17:20.809Z,7.80
2023-02-06T10:19:44.448Z,6.20
2023-02-06T10:21:57.500Z,6.95
2023-02-06T10:24:11.846Z,6.28
2023-02-06T10:26:19.771Z,6.90
2023-02-06T10:28:27.963Z,4.50
2023-02-06T10:30:52.317Z,4.88
2023-02-06T10:33:09.713Z,4.85
2023-02-06T10:35:34.833Z,4.72
2023-02-06T10:38:20.741Z,5.90
2023-02-06T10:40:38.084Z,5.05
2023-02-06T10:42:56.561Z,4.45
2023-02-06T10:45:18.948Z,4.38
2023-02-06T10:47:39.284Z,4.97
2023-02-06T10:49:55.385Z,5.05
2023-02-06T10:52:04.483Z,4.63
2023-02-06T10:54:19.469Z,4.82
2023-02-06T10:56:30.097Z,4.65
2023-02-06T10:58:43.290Z,5.40
2023-02-06T11:03:07.211Z,5.30
2023-02-06T11:05:20.321Z,5.07
2023-02-06T11:07:31.380Z,5.38
2023-02-06T11:09:37.108Z,4.82
2023-02-06T11:11:48.609Z,5.15
2023-02-06T11:13:57.794Z,4.78
2023-02-06T11:16:08.330Z,5.45
2023-02-06T11:18:23.446Z,5.10
2023-02-06T11:20:35.264Z,4.88
2023-02-06T11:22:52.028Z,5.18
2023-02-06T11:25:04.644Z,4.50
2023-02-06T11:27:20.582Z,4.00
2023-02-06T11:29:29.924Z,4.95
2023-02-06T11:31:45.190Z,4.65
2023-02-06T11:33:55.920Z,4.60
2023-02-06T11:36:05.236Z,4.60
2023-02-06T11:38:19.947Z,4.40
2023-02-06T11:40:29.758Z,4.63
2023-02-06T11:42:36.321Z,4.05
2023-02-06T11:44:45.211Z,4.28
2023-02-06T11:46:50.148Z,4.35
2023-02-06T11:49:09.659Z,4.07
2023-02-06T11:51:19.325Z,4.32
2023-02-06T11:53:24.389Z,4.45
2023-02-06T11:55:32.137Z,4.68
2023-02-06T11:57:37.503Z,5.88
2023-02-06T11:59:55.192Z,5.40
2023-02-06T12:02:01.581Z,4.43
2023-02-06T12:04:07.648Z,4.30
2023-02-06T12:06:20.147Z,4.18
2023-02-06T12:08:27.392Z,4.07
2023-02-06T12:10:38.992Z,4.07
2023-02-06T12:12:49.487Z,4.32
2023-02-06T12:15:04.883Z,4.93
2023-02-06T12:17:28.805Z,4.55
2023-02-06T12:19:44.857Z,4.43
2023-02-06T12:21:56.801Z,4.18
2023-02-06T12:24:05.672Z,4.78
2023-02-06T12:26:17.651Z,4.55
2023-02-06T12:28:29.696Z,5.55
2023-02-06T12:32:57.496Z,4.82
2023-02-06T12:35:18.427Z,4.30
2023-02-06T12:37:35.941Z,3.97
2023-02-06T12:39:41.039Z,4.75
2023-02-06T12:42:01.189Z,4.03
2023-02-06T12:44:21.038Z,3.95
2023-02-06T12:46:30.873Z,4.10
2023-02-06T12:48:43.129Z,5.60
2023-02-06T12:50:54.105Z,4.32
2023-02-06T12:53:07.233Z,2.95
2023-02-06T12:55:24.683Z,3.15
2023-02-06T12:57:33.208Z,4.00
2023-02-06T13:00:12.824Z,3.40
2023-02-06T13:02:28.806Z,3.95
2023-02-06T13:04:38.725Z,3.25
2023-02-06T13:06:56.112Z,3.05
2023-02-06T13:09:08.068Z,2.92
2023-02-06T13:11:32.596Z,4.35
2023-02-06T13:13:42.227Z,3.70
2023-02-06T13:15:57.573Z,3.20
2023-02-06T13:18:02.530Z,2.65
2023-02-06T13:20:12.640Z,2.78
2023-02-06T13:22:42.109Z,3.10
2023-02-06T13:24:51.742Z,3.10
2023-02-06T13:27:17.993Z,3.40
2023-02-06T13:29:28.174Z,3.85
2023-02-06T13:31:36.427Z,3.47
2023-02-06T13:33:44.489Z,3.20
2023-02-06T13:36:00.009Z,3.22
2023-02-06T13:38:31.164Z,2.78
2023-02-06T13:40:39.656Z,3.22
2023-02-06T13:42:54.027Z,2.70
2023-02-06T13:45:01.154Z,2.88
2023-02-06T13:47:39.195Z,2.53
2023-02-06T13:50:34.056Z,2.80
2023-02-06T13:55:10.185Z,1.90
2023-02-06T13:57:34.167Z,2.53
2023-02-06T13:59:44.095Z,2.10
2023-02-06T14:01:49.804Z,2.47
2023-02-06T14:03:57.608Z,2.63
2023-02-06T14:06:10.615Z,2.03
2023-02-06T14:08:25.796Z,2.97
2023-02-06T14:11:11.102Z,2.92
2023-02-06T14:13:40.091Z,2.20
2023-02-06T14:15:58.866Z,2.58
2023-02-06T14:18:27.130Z,2.60
2023-02-06T14:20:45.296Z,2.20
2023-02-06T14:22:58.184Z,2.70
2023-02-06T14:25:26.875Z,2.40
2023-02-06T14:27:46.880Z,2.55
2023-02-06T14:30:05.165Z,2.25
2023-02-06T14:32:30.143Z,2.55
2023-02-06T14:34:52.714Z,2.67
2023-02-06T14:37:27.012Z,3.10
2023-02-06T14:39:53.098Z,3.25
2023-02-06T14:41:58.656Z,2.67
2023-02-06T14:44:04.025Z,3.33
2023-02-06T14:46:17.035Z,4.20
2023-02-06T14:48:26.986Z,3.08
2023-02-06T14:50:35.367Z,3.30
2023-02-06T14:52:40.944Z,4.05
2023-02-06T14:54:46.020Z,3.45
2023-02-06T14:56:59.752Z,3.58
2023-02-06T14:59:18.489Z,3.60
2023-02-06T15:01:32.632Z,4.40
2023-02-06T15:03:38.222Z,4.32
2023-02-06T15:05:43.583Z,4.35
2023-02-06T15:07:49.601Z,5.43
2023-02-06T15:10:10.645Z,5.35
2023-02-06T15:12:23.910Z,5.63
2023-02-06T15:14:32.950Z,5.40
2023-02-06T15:16:53.447Z,5.28
2023-02-06T15:19:13.872Z,3.85
2023-02-06T15:21:23.180Z,4.40
2023-02-06T15:23:45.576Z,3.85
2023-02-06T15:26:08.515Z,4.55
2023-02-06T15:28:21.836Z,4.65
2023-02-06T15:30:29.556Z,4.68
2023-02-06T15:32:41.001Z,4.32
2023-02-06T15:34:48.680Z,5.03
2023-02-06T15:36:55.160Z,4.53
2023-02-06T15:39:04.910Z,5.18
2023-02-06T15:41:14.508Z,5.00
2023-02-06T15:43:22.562Z,4.13
2023-02-06T15:45:31.588Z,4.55
2023-02-06T15:47:42.408Z,4.82
2023-02-06T15:49:49.917Z,4.88
2023-02-06T15:51:58.458Z,4.10
2023-02-06T15:54:20.495Z,5.65
2023-02-06T15:56:31.190Z,4.43
2023-02-06T15:58:37.917Z,4.05
2023-02-06T16:00:44.188Z,5.80
2023-02-06T16:02:52.746Z,4.82
2023-02-06T16:04:58.821Z,4.38
2023-02-06T16:07:14.969Z,4.65
2023-02-06T16:09:24.407Z,5.35
2023-02-06T16:11:48.172Z,4.70
2023-02-06T16:13:53.516Z,5.45
2023-02-06T16:16:24.334Z,5.30
2023-02-06T16:18:35.771Z,5.70
2023-02-06T16:20:44.056Z,6.60
2023-02-06T16:22:49.197Z,6.93
2023-02-06T16:24:58.531Z,6.97
2023-02-06T16:27:19.333Z,6.95
2023-02-06T16:29:29.656Z,6.35
2023-02-06T16:31:40.022Z,5.75
2023-02-06T16:33:50.758Z,6.15
2023-02-06T16:35:55.724Z,6.35
2023-02-06T16:38:00.895Z,6.22
2023-02-06T16:40:06.095Z,6.18
2023-02-06T16:42:17.097Z,7.10
2023-02-06T16:44:33.190Z,7.60
2023-02-06T16:46:46.448Z,7.95
2023-02-06T16:48:55.318Z,8.45
2023-02-06T16:51:01.820Z,8.65
2023-02-06T16:53:08.200Z,8.98
2023-02-06T16:55:23.204Z,8.25
2023-02-06T16:57:33.201Z,8.13
2023-02-06T16:59:38.898Z,8.10
2023-02-06T17:01:44.080Z,8.45
2023-02-06T17:03:49.058Z,8.27
2023-02-06T17:08:01.864Z,8.32
2023-02-06T17:10:08.753Z,7.78
2023-02-06T17:12:19.558Z,8.80
2023-02-06T17:14:24.481Z,7.93
2023-02-06T17:16:32.214Z,8.95
2023-02-06T17:18:37.259Z,7.63
2023-02-06T17:22:51.966Z,7.93
2023-02-06T17:24:56.935Z,9.30
2023-02-06T17:27:02.678Z,8.63
2023-02-06T17:29:07.619Z,9.52
2023-02-06T17:31:12.875Z,9.98
2023-02-06T17:35:24.947Z,8.60
2023-02-06T17:37:29.907Z,8.35
2023-02-06T17:39:37.720Z,7.72
2023-02-06T17:41:43.483Z,8.13
2023-02-06T17:43:48.430Z,7.72
2023-02-06T17:45:53.448Z,7.72
2023-02-06T17:47:59.177Z,6.65
2023-02-06T17:50:04.388Z,7.05
2023-02-06T17:52:09.920Z,7.32
2023-02-06T17:54:15.606Z,8.00
2023-02-06T17:56:23.243Z,8.73
2023-02-06T17:58:28.910Z,7.78
2023-02-06T18:00:35.018Z,7.38
2023-02-06T18:02:40.119Z,8.05
2023-02-06T18:04:48.989Z,7.80
2023-02-06T18:06:54.416Z,7.20
2023-02-06T18:09:02.300Z,6.07
2023-02-06T18:11:11.994Z,5.55
2023-02-06T18:13:20.520Z,6.70
2023-02-06T18:15:26.251Z,6.13
2023-02-06T18:17:31.203Z,4.90
2023-02-06T18:19:42.247Z,5.68
2023-02-06T18:21:47.611Z,5.90
2023-02-06T18:23:52.914Z,6.00
2023-02-06T18:25:57.843Z,5.22
2023-02-06T18:28:03.235Z,4.18
2023-02-06T18:30:13.285Z,7.47
2023-02-06T18:32:18.788Z,5.22
2023-02-06T18:34:23.845Z,4.88
2023-02-06T18:38:37.094Z,4.38
2023-02-06T18:40:45.634Z,4.88
2023-02-06T18:42:50.876Z,4.85
2023-02-06T18:44:56.164Z,4.40
2023-02-06T18:47:04.143Z,5.15
2023-02-06T18:49:09.540Z,4.13
2023-02-06T18:51:14.488Z,4.47
2023-02-06T18:53:20.238Z,3.97
2023-02-06T18:55:26.110Z,4.57
2023-02-06T18:57:31.240Z,4.45
2023-02-06T18:59:36.417Z,4.70
2023-02-06T19:01:43.787Z,5.07
2023-02-06T19:03:52.502Z,5.85
2023-02-06T19:05:57.716Z,4.28
2023-02-06T19:08:03.282Z,5.40
2023-02-06T19:10:13.031Z,5.03
2023-02-06T19:12:18.495Z,4.88
2023-02-06T19:14:25.763Z,4.82
2023-02-06T19:16:32.533Z,4.50
2023-02-06T19:18:41.876Z,4.70
2023-02-06T19:20:49.628Z,4.28
2023-02-06T19:22:55.201Z,4.90
2023-02-06T19:25:00.162Z,4.82
2023-02-06T19:27:05.676Z,5.13
2023-02-06T19:29:11.827Z,5.68
2023-02-06T19:31:23.774Z,4.60
2023-02-06T19:33:28.897Z,5.50
2023-02-06T19:35:34.086Z,5.72
2023-02-06T19:37:41.951Z,4.68
2023-02-06T19:39:46.892Z,6.07
2023-02-06T19:41:51.901Z,4.40
2023-02-06T19:43:58.592Z,4.82
2023-02-06T19:46:07.015Z,4.65
2023-02-06T19:48:14.565Z,4.75
2023-02-06T19:50:20.142Z,4.05
2023-02-06T19:52:25.220Z,4.53
2023-02-06T19:54:33.216Z,4.55
2023-02-06T19:56:41.198Z,4.65
2023-02-06T19:58:46.319Z,4.57
2023-02-06T20:00:54.636Z,4.82
2023-02-06T20:02:59.658Z,4.57
2023-02-06T20:05:04.727Z,4.88
2023-02-06T20:07:11.051Z,3.97
2023-02-06T20:09:18.407Z,3.60
2023-02-06T20:11:27.018Z,4.57
2023-02-06T20:13:31.938Z,3.70
2023-02-06T20:15:40.582Z,4.25
2023-02-06T20:17:45.851Z,3.60
2023-02-06T20:19:50.786Z,4.53
2023-02-06T20:21:59.925Z,5.40
2023-02-06T20:24:08.545Z,5.13
2023-02-06T20:26:13.461Z,4.82
2023-02-06T20:28:21.172Z,4.30
2023-02-06T20:30:26.517Z,5.40
2023-02-06T20:32:32.157Z,6.05
2023-02-06T20:34:38.155Z,5.63
2023-02-06T20:36:43.554Z,5.05
2023-02-06T20:38:51.606Z,3.80
2023-02-06T20:40:56.667Z,3.33
2023-02-06T20:43:01.568Z,3.38
2023-02-06T20:45:10.184Z,3.50
2023-02-06T20:47:15.777Z,2.83
2023-02-06T20:49:23.200Z,2.80
2023-02-06T20:51:28.685Z,2.80
2023-02-06T20:53:34.453Z,2.53
2023-02-06T20:55:44.137Z,2.80
2023-02-06T20:57:49.033Z,2.67
2023-02-06T20:59:53.943Z,2.30
2023-02-06T21:02:01.499Z,2.40
2023-02-06T21:04:09.587Z,2.00
2023-02-06T21:06:16.022Z,2.17
2023-02-06T21:08:20.988Z,2.00
2023-02-06T21:10:27.982Z,2.15
2023-02-06T21:12:32.908Z,2.00
2023-02-06T21:14:38.157Z,2.08
2023-02-06T21:16:45.112Z,2.40
2023-02-06T21:18:52.594Z,2.55
2023-02-06T21:20:59.357Z,2.10
2023-02-06T21:23:04.358Z,2.20
2023-02-06T21:25:09.646Z,2.05
2023-02-06T21:27:14.554Z,2.20
2023-02-06T21:29:19.595Z,2.25
2023-02-06T21:31:36.029Z,2.55
2023-02-06T21:33:43.023Z,2.45
2023-02-06T21:35:55.442Z,3.15
2023-02-06T21:38:00.325Z,3.30
2023-02-06T21:40:05.509Z,2.97
2023-02-06T21:42:12.226Z,3.03
2023-02-06T21:44:17.536Z,3.03
2023-02-06T21:46:23.180Z,2.80
2023-02-06T21:48:28.528Z,2.40
2023-02-06T21:50:33.623Z,4.13
2023-02-06T21:52:41.569Z,2.95
2023-02-06T21:54:46.468Z,3.15
2023-02-06T21:56:52.113Z,3.00
2023-02-06T21:58:57.904Z,2.88
2023-02-06T22:01:03.005Z,3.10
2023-02-06T22:03:11.055Z,2.70
2023-02-06T22:05:15.946Z,2.92
2023-02-06T22:07:20.845Z,2.70
2023-02-06T22:09:28.386Z,2.65
2023-02-06T22:11:33.931Z,2.72
2023-02-06T22:13:38.853Z,2.75
2023-02-06T22:15:52.742Z,2.88
2023-02-06T22:17:58.128Z,2.85
2023-02-06T22:20:03.418Z,3.10
2023-02-06T22:22:08.445Z,3.17
2023-02-06T22:24:14.745Z,2.88
2023-02-06T22:26:23.826Z,2.95
2023-02-06T22:28:28.912Z,2.92
2023-02-06T22:30:33.949Z,3.65
2023-02-06T22:32:39.987Z,3.20
2023-02-06T22:34:44.908Z,2.75
2023-02-06T22:36:51.535Z,3.08
2023-02-06T22:38:58.750Z,3.55
2023-02-06T22:41:06.192Z,3.85
2023-02-06T22:43:13.691Z,3.58
2023-02-06T22:45:18.810Z,3.10
2023-02-06T22:47:23.758Z,3.50
2023-02-06T22:49:28.669Z,3.60
2023-02-06T22:51:34.136Z,3.58
2023-02-06T22:53:38.232Z,3.45
2023-02-06T22:55:58.377Z,3.90
2023-02-06T22:58:03.260Z,3.58
2023-02-06T23:00:14.814Z,2.90
2023-02-06T23:02:19.783Z,3.13
2023-02-06T23:04:28.216Z,3.38
2023-02-06T23:06:35.370Z,3.38
2023-02-06T23:08:40.859Z,3.30
2023-02-06T23:10:49.530Z,3.33
2023-02-06T23:12:54.512Z,3.72
2023-02-06T23:14:59.634Z,3.65
2023-02-06T23:17:07.327Z,3.30
2023-02-06T23:19:14.393Z,3.90
2023-02-06T23:21:21.407Z,3.83
2023-02-06T23:23:26.720Z,3.60
2023-02-06T23:25:31.619Z,3.47
2023-02-06T23:27:36.564Z,3.38
2023-02-06T23:29:41.558Z,4.00
2023-02-06T23:31:47.401Z,4.07
2023-02-06T23:33:55.924Z,3.45
2023-02-06T23:36:10.761Z,3.90
2023-02-06T23:38:16.085Z,3.38
2023-02-06T23:40:21.665Z,3.80
2023-02-06T23:42:26.942Z,3.40
2023-02-06T23:44:31.830Z,3.63
2023-02-06T23:46:39.874Z,3.65
2023-02-06T23:48:44.809Z,4.55
2023-02-06T23:50:52.309Z,4.22
2023-02-06T23:52:57.481Z,4.15
2023-02-06T23:55:02.388Z,4.05
2023-02-06T23:57:07.524Z,4.13
2023-02-06T23:59:13.621Z,3.88
